sensor_id;sensor_type;location;lat;lon;timestamp;P1;durP1;ratioP1;P2;durP2;ratioP2
77432;SDS011;66752;48.576;8.876;2023-08-30T00:00:51;9.48;;;6.43;;
77432;SDS011;66752;48.576;8.876;2023-08-30T00:03:18;9.60;;;6.20;;
77432;SDS011;66752;48.576;8.876;2023-08-30T00:05:44;10.77;;;6.90;;
77432;SDS011;66752;48.576;8.876;2023-08-30T00:08:10;9.90;;;7.10;;
77432;SDS011;66752;48.576;8.876;2023-08-30T00:10:38;8.05;;;6.20;;
77432;SDS011;66752;48.576;8.876;2023-08-30T00:13:04;9.63;;;6.75;;
77432;SDS011;66752;48.576;8.876;2023-08-30T00:15:30;10.40;;;7.72;;
77432;SDS011;66752;48.576;8.876;2023-08-30T00:17:56;9.20;;;6.70;;
77432;SDS011;66752;48.576;8.876;2023-08-30T00:20:22;10.93;;;7.63;;
77432;SDS011;66752;48.576;8.876;2023-08-30T00:22:48;9.85;;;7.55;;
77432;SDS011;66752;48.576;8.876;2023-08-30T00:25:14;8.48;;;6.13;;
77432;SDS011;66752;48.576;8.876;2023-08-30T00:27:41;9.00;;;6.47;;
77432;SDS011;66752;48.576;8.876;2023-08-30T00:30:07;9.30;;;6.65;;
77432;SDS011;66752;48.576;8.876;2023-08-30T00:32:34;9.93;;;6.68;;
77432;SDS011;66752;48.576;8.876;2023-08-30T00:35:00;10.20;;;7.57;;
77432;SDS011;66752;48.576;8.876;2023-08-30T00:37:26;10.15;;;7.32;;
77432;SDS011;66752;48.576;8.876;2023-08-30T00:39:51;10.23;;;7.30;;
77432;SDS011;66752;48.576;8.876;2023-08-30T00:42:17;10.68;;;7.70;;
77432;SDS011;66752;48.576;8.876;2023-08-30T00:44:43;11.38;;;7.65;;
77432;SDS011;66752;48.576;8.876;2023-08-30T00:47:09;10.88;;;7.28;;
77432;SDS011;66752;48.576;8.876;2023-08-30T00:49:36;10.27;;;7.32;;
77432;SDS011;66752;48.576;8.876;2023-08-30T00:52:02;10.98;;;8.02;;
77432;SDS011;66752;48.576;8.876;2023-08-30T00:54:30;11.15;;;7.75;;
77432;SDS011;66752;48.576;8.876;2023-08-30T00:56:57;11.32;;;8.10;;
77432;SDS011;66752;48.576;8.876;2023-08-30T00:59:23;12.32;;;8.25;;
77432;SDS011;66752;48.576;8.876;2023-08-30T01:01:50;15.55;;;8.07;;
77432;SDS011;66752;48.576;8.876;2023-08-30T01:04:18;10.50;;;7.40;;
77432;SDS011;66752;48.576;8.876;2023-08-30T01:06:44;11.18;;;7.68;;
77432;SDS011;66752;48.576;8.876;2023-08-30T01:09:10;12.00;;;8.30;;
77432;SDS011;66752;48.576;8.876;2023-08-30T01:11:42;11.15;;;8.15;;
77432;SDS011;66752;48.576;8.876;2023-08-30T01:14:12;11.30;;;7.63;;
77432;SDS011;66752;48.576;8.876;2023-08-30T01:16:39;13.85;;;8.43;;
77432;SDS011;66752;48.576;8.876;2023-08-30T01:19:42;11.35;;;8.00;;
77432;SDS011;66752;48.576;8.876;2023-08-30T01:24:29;10.13;;;7.63;;
77432;SDS011;66752;48.576;8.876;2023-08-30T01:29:30;10.10;;;7.97;;
77432;SDS011;66752;48.576;8.876;2023-08-30T01:31:57;10.25;;;7.45;;
77432;SDS011;66752;48.576;8.876;2023-08-30T01:34:23;11.63;;;8.10;;
77432;SDS011;66752;48.576;8.876;2023-08-30T01:36:50;10.27;;;7.68;;
77432;SDS011;66752;48.576;8.876;2023-08-30T01:39:16;9.73;;;7.38;;
77432;SDS011;66752;48.576;8.876;2023-08-30T01:41:43;9.45;;;6.90;;
77432;SDS011;66752;48.576;8.876;2023-08-30T01:46:35;11.10;;;7.20;;
77432;SDS011;66752;48.576;8.876;2023-08-30T01:49:02;12.40;;;7.35;;
77432;SDS011;66752;48.576;8.876;2023-08-30T01:51:28;12.38;;;8.07;;
77432;SDS011;66752;48.576;8.876;2023-08-30T01:53:56;11.63;;;7.75;;
77432;SDS011;66752;48.576;8.876;2023-08-30T01:56:23;10.80;;;7.10;;
77432;SDS011;66752;48.576;8.876;2023-08-30T01:58:49;9.65;;;6.95;;
77432;SDS011;66752;48.576;8.876;2023-08-30T02:01:15;11.40;;;7.85;;
77432;SDS011;66752;48.576;8.876;2023-08-30T02:03:44;10.40;;;6.93;;
77432;SDS011;66752;48.576;8.876;2023-08-30T02:06:14;10.40;;;7.22;;
77432;SDS011;66752;48.576;8.876;2023-08-30T02:08:41;10.18;;;7.75;;
77432;SDS011;66752;48.576;8.876;2023-08-30T02:11:21;11.20;;;8.30;;
77432;SDS011;66752;48.576;8.876;2023-08-30T02:13:47;10.10;;;7.60;;
77432;SDS011;66752;48.576;8.876;2023-08-30T02:16:14;10.15;;;7.80;;
77432;SDS011;66752;48.576;8.876;2023-08-30T02:18:41;10.80;;;8.10;;
77432;SDS011;66752;48.576;8.876;2023-08-30T02:21:07;11.68;;;7.15;;
77432;SDS011;66752;48.576;8.876;2023-08-30T02:23:33;9.50;;;6.53;;
77432;SDS011;66752;48.576;8.876;2023-08-30T02:25:59;14.88;;;7.47;;
77432;SDS011;66752;48.576;8.876;2023-08-30T02:28:25;10.13;;;7.60;;
77432;SDS011;66752;48.576;8.876;2023-08-30T02:30:52;11.48;;;7.40;;
77432;SDS011;66752;48.576;8.876;2023-08-30T02:33:19;10.35;;;7.32;;
77432;SDS011;66752;48.576;8.876;2023-08-30T02:35:45;10.93;;;7.30;;
77432;SDS011;66752;48.576;8.876;2023-08-30T02:38:11;15.23;;;7.72;;
77432;SDS011;66752;48.576;8.876;2023-08-30T02:40:37;10.38;;;7.68;;
77432;SDS011;66752;48.576;8.876;2023-08-30T02:43:03;12.55;;;7.40;;
77432;SDS011;66752;48.576;8.876;2023-08-30T02:45:29;9.27;;;6.60;;
77432;SDS011;66752;48.576;8.876;2023-08-30T02:47:55;10.85;;;7.60;;
77432;SDS011;66752;48.576;8.876;2023-08-30T02:50:24;10.73;;;7.10;;
77432;SDS011;66752;48.576;8.876;2023-08-30T02:52:50;12.57;;;6.93;;
77432;SDS011;66752;48.576;8.876;2023-08-30T02:55:17;9.85;;;6.85;;
77432;SDS011;66752;48.576;8.876;2023-08-30T02:57:43;13.32;;;7.63;;
77432;SDS011;66752;48.576;8.876;2023-08-30T03:00:11;12.05;;;6.97;;
77432;SDS011;66752;48.576;8.876;2023-08-30T03:02:37;10.35;;;6.22;;
77432;SDS011;66752;48.576;8.876;2023-08-30T03:05:03;9.75;;;6.57;;
77432;SDS011;66752;48.576;8.876;2023-08-30T03:07:29;10.80;;;7.13;;
77432;SDS011;66752;48.576;8.876;2023-08-30T03:09:55;10.77;;;6.88;;
77432;SDS011;66752;48.576;8.876;2023-08-30T03:12:21;10.85;;;7.10;;
77432;SDS011;66752;48.576;8.876;2023-08-30T03:14:47;11.50;;;7.75;;
77432;SDS011;66752;48.576;8.876;2023-08-30T03:17:13;12.32;;;7.80;;
77432;SDS011;66752;48.576;8.876;2023-08-30T03:19:39;10.65;;;7.15;;
77432;SDS011;66752;48.576;8.876;2023-08-30T03:22:05;11.27;;;6.88;;
77432;SDS011;66752;48.576;8.876;2023-08-30T03:24:31;10.85;;;7.18;;
77432;SDS011;66752;48.576;8.876;2023-08-30T03:26:57;13.77;;;7.78;;
77432;SDS011;66752;48.576;8.876;2023-08-30T03:29:24;11.23;;;7.53;;
77432;SDS011;66752;48.576;8.876;2023-08-30T03:31:50;13.63;;;7.20;;
77432;SDS011;66752;48.576;8.876;2023-08-30T03:34:16;12.45;;;8.25;;
77432;SDS011;66752;48.576;8.876;2023-08-30T03:36:42;11.75;;;8.48;;
77432;SDS011;66752;48.576;8.876;2023-08-30T03:39:09;13.52;;;8.27;;
77432;SDS011;66752;48.576;8.876;2023-08-30T03:41:35;11.95;;;7.97;;
77432;SDS011;66752;48.576;8.876;2023-08-30T03:44:01;12.95;;;8.45;;
77432;SDS011;66752;48.576;8.876;2023-08-30T03:46:27;11.85;;;7.68;;
77432;SDS011;66752;48.576;8.876;2023-08-30T03:48:53;13.93;;;7.82;;
77432;SDS011;66752;48.576;8.876;2023-08-30T03:51:19;12.15;;;8.35;;
77432;SDS011;66752;48.576;8.876;2023-08-30T03:53:45;13.23;;;8.70;;
77432;SDS011;66752;48.576;8.876;2023-08-30T03:56:11;13.38;;;7.80;;
77432;SDS011;66752;48.576;8.876;2023-08-30T03:58:37;14.05;;;8.07;;
77432;SDS011;66752;48.576;8.876;2023-08-30T04:01:03;14.70;;;8.13;;
77432;SDS011;66752;48.576;8.876;2023-08-30T04:03:29;12.40;;;7.85;;
77432;SDS011;66752;48.576;8.876;2023-08-30T04:05:55;13.80;;;8.52;;
77432;SDS011;66752;48.576;8.876;2023-08-30T04:08:21;14.02;;;8.20;;
77432;SDS011;66752;48.576;8.876;2023-08-30T04:10:47;13.20;;;7.85;;
77432;SDS011;66752;48.576;8.876;2023-08-30T04:13:14;14.85;;;8.93;;
77432;SDS011;66752;48.576;8.876;2023-08-30T04:15:40;12.80;;;7.97;;
77432;SDS011;66752;48.576;8.876;2023-08-30T04:18:06;12.77;;;8.10;;
77432;SDS011;66752;48.576;8.876;2023-08-30T04:20:33;10.88;;;6.75;;
77432;SDS011;66752;48.576;8.876;2023-08-30T04:22:59;11.30;;;6.68;;
77432;SDS011;66752;48.576;8.876;2023-08-30T04:25:26;10.90;;;7.28;;
77432;SDS011;66752;48.576;8.876;2023-08-30T04:27:52;10.65;;;6.40;;
77432;SDS011;66752;48.576;8.876;2023-08-30T04:30:18;11.77;;;7.40;;
77432;SDS011;66752;48.576;8.876;2023-08-30T04:32:44;11.57;;;7.20;;
77432;SDS011;66752;48.576;8.876;2023-08-30T04:35:10;12.57;;;7.43;;
77432;SDS011;66752;48.576;8.876;2023-08-30T04:37:36;11.90;;;7.47;;
77432;SDS011;66752;48.576;8.876;2023-08-30T04:40:05;12.57;;;7.47;;
77432;SDS011;66752;48.576;8.876;2023-08-30T04:42:31;13.77;;;8.38;;
77432;SDS011;66752;48.576;8.876;2023-08-30T04:44:57;13.45;;;9.00;;
77432;SDS011;66752;48.576;8.876;2023-08-30T04:47:25;16.45;;;9.07;;
77432;SDS011;66752;48.576;8.876;2023-08-30T04:49:51;12.57;;;7.88;;
77432;SDS011;66752;48.576;8.876;2023-08-30T04:52:17;14.90;;;8.40;;
77432;SDS011;66752;48.576;8.876;2023-08-30T04:54:43;13.05;;;8.05;;
77432;SDS011;66752;48.576;8.876;2023-08-30T04:57:10;13.65;;;8.20;;
77432;SDS011;66752;48.576;8.876;2023-08-30T04:59:39;16.33;;;8.63;;
77432;SDS011;66752;48.576;8.876;2023-08-30T05:02:05;15.60;;;9.32;;
77432;SDS011;66752;48.576;8.876;2023-08-30T05:04:31;17.83;;;10.02;;
77432;SDS011;66752;48.576;8.876;2023-08-30T05:06:57;16.42;;;10.10;;
77432;SDS011;66752;48.576;8.876;2023-08-30T05:09:23;17.20;;;10.73;;
77432;SDS011;66752;48.576;8.876;2023-08-30T05:11:50;18.10;;;10.80;;
77432;SDS011;66752;48.576;8.876;2023-08-30T05:14:16;16.17;;;10.18;;
77432;SDS011;66752;48.576;8.876;2023-08-30T05:16:42;18.23;;;10.35;;
77432;SDS011;66752;48.576;8.876;2023-08-30T05:19:08;16.13;;;9.07;;
77432;SDS011;66752;48.576;8.876;2023-08-30T05:21:34;18.08;;;10.07;;
77432;SDS011;66752;48.576;8.876;2023-08-30T05:24:01;16.88;;;10.02;;
77432;SDS011;66752;48.576;8.876;2023-08-30T05:26:27;16.02;;;9.93;;
77432;SDS011;66752;48.576;8.876;2023-08-30T05:28:53;16.90;;;10.32;;
77432;SDS011;66752;48.576;8.876;2023-08-30T05:31:19;14.70;;;9.73;;
77432;SDS011;66752;48.576;8.876;2023-08-30T05:33:45;14.50;;;9.10;;
77432;SDS011;66752;48.576;8.876;2023-08-30T05:36:11;17.75;;;10.27;;
77432;SDS011;66752;48.576;8.876;2023-08-30T05:38:37;17.85;;;9.75;;
77432;SDS011;66752;48.576;8.876;2023-08-30T05:41:03;14.40;;;8.60;;
77432;SDS011;66752;48.576;8.876;2023-08-30T05:43:29;18.77;;;10.23;;
77432;SDS011;66752;48.576;8.876;2023-08-30T05:45:55;13.23;;;8.63;;
77432;SDS011;66752;48.576;8.876;2023-08-30T05:48:26;13.32;;;8.40;;
77432;SDS011;66752;48.576;8.876;2023-08-30T05:50:52;12.77;;;8.18;;
77432;SDS011;66752;48.576;8.876;2023-08-30T05:53:18;12.77;;;8.00;;
77432;SDS011;66752;48.576;8.876;2023-08-30T05:55:44;13.02;;;7.63;;
77432;SDS011;66752;48.576;8.876;2023-08-30T05:58:10;13.07;;;8.60;;
77432;SDS011;66752;48.576;8.876;2023-08-30T06:00:36;13.30;;;8.57;;
77432;SDS011;66752;48.576;8.876;2023-08-30T06:03:02;13.05;;;8.23;;
77432;SDS011;66752;48.576;8.876;2023-08-30T06:05:29;14.85;;;9.32;;
77432;SDS011;66752;48.576;8.876;2023-08-30T06:07:55;11.63;;;7.72;;
77432;SDS011;66752;48.576;8.876;2023-08-30T06:10:22;13.18;;;8.35;;
77432;SDS011;66752;48.576;8.876;2023-08-30T06:12:48;14.23;;;7.72;;
77432;SDS011;66752;48.576;8.876;2023-08-30T06:15:14;12.75;;;7.93;;
77432;SDS011;66752;48.576;8.876;2023-08-30T06:17:40;13.32;;;8.35;;
77432;SDS011;66752;48.576;8.876;2023-08-30T06:20:06;13.45;;;8.02;;
77432;SDS011;66752;48.576;8.876;2023-08-30T06:22:32;12.68;;;7.88;;
77432;SDS011;66752;48.576;8.876;2023-08-30T06:24:58;12.95;;;8.48;;
77432;SDS011;66752;48.576;8.876;2023-08-30T06:27:24;13.15;;;8.00;;
77432;SDS011;66752;48.576;8.876;2023-08-30T06:29:50;12.50;;;7.80;;
77432;SDS011;66752;48.576;8.876;2023-08-30T06:32:16;11.32;;;7.22;;
77432;SDS011;66752;48.576;8.876;2023-08-30T06:34:43;13.10;;;7.68;;
77432;SDS011;66752;48.576;8.876;2023-08-30T06:37:09;11.02;;;6.50;;
77432;SDS011;66752;48.576;8.876;2023-08-30T06:39:35;11.10;;;6.60;;
77432;SDS011;66752;48.576;8.876;2023-08-30T06:42:01;10.93;;;6.80;;
77432;SDS011;66752;48.576;8.876;2023-08-30T06:44:28;12.45;;;6.80;;
77432;SDS011;66752;48.576;8.876;2023-08-30T06:46:55;11.20;;;7.82;;
77432;SDS011;66752;48.576;8.876;2023-08-30T06:49:21;9.38;;;6.50;;
77432;SDS011;66752;48.576;8.876;2023-08-30T06:51:47;11.57;;;7.22;;
77432;SDS011;66752;48.576;8.876;2023-08-30T06:54:13;10.23;;;6.85;;
77432;SDS011;66752;48.576;8.876;2023-08-30T06:56:39;11.15;;;7.22;;
77432;SDS011;66752;48.576;8.876;2023-08-30T06:59:05;11.82;;;7.28;;
77432;SDS011;66752;48.576;8.876;2023-08-30T07:01:31;11.23;;;6.90;;
77432;SDS011;66752;48.576;8.876;2023-08-30T07:03:57;10.93;;;6.95;;
77432;SDS011;66752;48.576;8.876;2023-08-30T07:06:23;10.80;;;7.10;;
77432;SDS011;66752;48.576;8.876;2023-08-30T07:08:49;10.63;;;6.63;;
77432;SDS011;66752;48.576;8.876;2023-08-30T07:11:15;10.05;;;6.97;;
77432;SDS011;66752;48.576;8.876;2023-08-30T07:13:41;8.23;;;5.95;;
77432;SDS011;66752;48.576;8.876;2023-08-30T07:16:07;8.52;;;5.65;;
77432;SDS011;66752;48.576;8.876;2023-08-30T07:18:33;8.57;;;5.35;;
77432;SDS011;66752;48.576;8.876;2023-08-30T07:20:59;9.38;;;5.88;;
77432;SDS011;66752;48.576;8.876;2023-08-30T07:23:25;8.85;;;5.40;;
77432;SDS011;66752;48.576;8.876;2023-08-30T07:25:51;9.98;;;5.95;;
77432;SDS011;66752;48.576;8.876;2023-08-30T07:28:17;7.65;;;5.57;;
77432;SDS011;66752;48.576;8.876;2023-08-30T07:30:43;9.07;;;5.57;;
77432;SDS011;66752;48.576;8.876;2023-08-30T07:33:09;8.40;;;5.50;;
77432;SDS011;66752;48.576;8.876;2023-08-30T07:35:35;9.75;;;5.75;;
77432;SDS011;66752;48.576;8.876;2023-08-30T07:38:01;7.93;;;5.38;;
77432;SDS011;66752;48.576;8.876;2023-08-30T07:40:27;10.43;;;5.43;;
77432;SDS011;66752;48.576;8.876;2023-08-30T07:42:54;9.48;;;6.18;;
77432;SDS011;66752;48.576;8.876;2023-08-30T07:45:21;7.70;;;4.90;;
77432;SDS011;66752;48.576;8.876;2023-08-30T07:47:47;8.13;;;5.60;;
77432;SDS011;66752;48.576;8.876;2023-08-30T07:50:13;8.27;;;5.50;;
77432;SDS011;66752;48.576;8.876;2023-08-30T07:52:39;8.55;;;5.18;;
77432;SDS011;66752;48.576;8.876;2023-08-30T07:55:06;8.93;;;4.88;;
77432;SDS011;66752;48.576;8.876;2023-08-30T07:57:32;8.27;;;5.18;;
77432;SDS011;66752;48.576;8.876;2023-08-30T07:59:57;8.63;;;5.32;;
77432;SDS011;66752;48.576;8.876;2023-08-30T08:02:23;8.25;;;5.50;;
77432;SDS011;66752;48.576;8.876;2023-08-30T08:04:49;8.80;;;5.55;;
77432;SDS011;66752;48.576;8.876;2023-08-30T08:07:17;8.20;;;4.93;;
77432;SDS011;66752;48.576;8.876;2023-08-30T08:09:42;7.88;;;5.07;;
77432;SDS011;66752;48.576;8.876;2023-08-30T08:12:08;7.68;;;5.38;;
77432;SDS011;66752;48.576;8.876;2023-08-30T08:14:34;7.35;;;4.72;;
77432;SDS011;66752;48.576;8.876;2023-08-30T08:17:00;7.13;;;4.50;;
77432;SDS011;66752;48.576;8.876;2023-08-30T08:19:26;7.80;;;5.15;;
77432;SDS011;66752;48.576;8.876;2023-08-30T08:21:52;8.15;;;4.85;;
77432;SDS011;66752;48.576;8.876;2023-08-30T08:24:19;7.70;;;5.40;;
77432;SDS011;66752;48.576;8.876;2023-08-30T08:26:46;7.65;;;4.75;;
77432;SDS011;66752;48.576;8.876;2023-08-30T08:29:12;7.60;;;4.85;;
77432;SDS011;66752;48.576;8.876;2023-08-30T08:31:38;7.35;;;4.63;;
77432;SDS011;66752;48.576;8.876;2023-08-30T08:34:11;7.40;;;4.90;;
77432;SDS011;66752;48.576;8.876;2023-08-30T08:39:03;7.80;;;5.32;;
77432;SDS011;66752;48.576;8.876;2023-08-30T08:41:34;9.77;;;5.20;;
77432;SDS011;66752;48.576;8.876;2023-08-30T08:44:01;8.40;;;5.15;;
77432;SDS011;66752;48.576;8.876;2023-08-30T08:46:28;9.55;;;5.55;;
77432;SDS011;66752;48.576;8.876;2023-08-30T08:48:56;12.40;;;5.22;;
77432;SDS011;66752;48.576;8.876;2023-08-30T08:51:22;8.30;;;4.50;;
77432;SDS011;66752;48.576;8.876;2023-08-30T08:56:15;7.75;;;5.18;;
77432;SDS011;66752;48.576;8.876;2023-08-30T08:58:41;8.25;;;4.88;;
77432;SDS011;66752;48.576;8.876;2023-08-30T09:01:08;8.23;;;5.30;;
77432;SDS011;66752;48.576;8.876;2023-08-30T09:03:34;8.00;;;5.75;;
77432;SDS011;66752;48.576;8.876;2023-08-30T09:06:00;7.88;;;5.15;;
77432;SDS011;66752;48.576;8.876;2023-08-30T09:08:27;7.35;;;4.55;;
77432;SDS011;66752;48.576;8.876;2023-08-30T09:10:53;8.02;;;5.50;;
77432;SDS011;66752;48.576;8.876;2023-08-30T09:13:19;8.55;;;4.82;;
77432;SDS011;66752;48.576;8.876;2023-08-30T09:15:47;7.00;;;4.60;;
77432;SDS011;66752;48.576;8.876;2023-08-30T09:18:16;8.27;;;4.95;;
77432;SDS011;66752;48.576;8.876;2023-08-30T09:20:42;9.13;;;5.35;;
77432;SDS011;66752;48.576;8.876;2023-08-30T09:23:18;8.20;;;5.60;;
77432;SDS011;66752;48.576;8.876;2023-08-30T09:25:46;8.32;;;4.90;;
77432;SDS011;66752;48.576;8.876;2023-08-30T09:28:12;7.65;;;4.82;;
77432;SDS011;66752;48.576;8.876;2023-08-30T09:30:38;7.88;;;5.20;;
77432;SDS011;66752;48.576;8.876;2023-08-30T09:33:05;7.43;;;4.30;;
77432;SDS011;66752;48.576;8.876;2023-08-30T09:37:57;6.28;;;4.25;;
77432;SDS011;66752;48.576;8.876;2023-08-30T09:40:23;6.53;;;5.15;;
77432;SDS011;66752;48.576;8.876;2023-08-30T09:42:49;7.95;;;4.43;;
77432;SDS011;66752;48.576;8.876;2023-08-30T09:45:33;6.88;;;4.38;;
77432;SDS011;66752;48.576;8.876;2023-08-30T09:48:00;6.20;;;4.43;;
77432;SDS011;66752;48.576;8.876;2023-08-30T09:50:26;6.30;;;4.40;;
77432;SDS011;66752;48.576;8.876;2023-08-30T09:52:53;6.10;;;3.95;;
77432;SDS011;66752;48.576;8.876;2023-08-30T09:55:19;8.63;;;4.18;;
77432;SDS011;66752;48.576;8.876;2023-08-30T09:57:46;6.53;;;3.78;;
77432;SDS011;66752;48.576;8.876;2023-08-30T10:00:14;6.65;;;4.00;;
77432;SDS011;66752;48.576;8.876;2023-08-30T10:02:41;5.93;;;3.78;;
77432;SDS011;66752;48.576;8.876;2023-08-30T10:05:08;5.60;;;3.50;;
77432;SDS011;66752;48.576;8.876;2023-08-30T10:07:36;5.47;;;3.38;;
77432;SDS011;66752;48.576;8.876;2023-08-30T10:10:03;6.40;;;3.38;;
77432;SDS011;66752;48.576;8.876;2023-08-30T10:12:33;5.80;;;3.63;;
77432;SDS011;66752;48.576;8.876;2023-08-30T10:14:59;5.10;;;3.15;;
77432;SDS011;66752;48.576;8.876;2023-08-30T10:19:51;6.18;;;2.80;;
77432;SDS011;66752;48.576;8.876;2023-08-30T10:22:18;6.55;;;2.92;;
77432;SDS011;66752;48.576;8.876;2023-08-30T10:27:10;5.45;;;2.92;;
77432;SDS011;66752;48.576;8.876;2023-08-30T10:32:03;4.90;;;2.50;;
77432;SDS011;66752;48.576;8.876;2023-08-30T10:34:35;4.50;;;2.75;;
77432;SDS011;66752;48.576;8.876;2023-08-30T10:39:35;5.38;;;2.80;;
77432;SDS011;66752;48.576;8.876;2023-08-30T10:42:06;5.72;;;2.78;;
77432;SDS011;66752;48.576;8.876;2023-08-30T10:44:32;5.75;;;3.10;;
77432;SDS011;66752;48.576;8.876;2023-08-30T10:46:58;6.05;;;2.92;;
77432;SDS011;66752;48.576;8.876;2023-08-30T10:49:27;5.97;;;3.05;;
77432;SDS011;66752;48.576;8.876;2023-08-30T10:51:56;5.65;;;3.33;;
77432;SDS011;66752;48.576;8.876;2023-08-30T10:54:23;6.40;;;3.40;;
77432;SDS011;66752;48.576;8.876;2023-08-30T10:56:56;5.25;;;3.38;;
77432;SDS011;66752;48.576;8.876;2023-08-30T10:59:26;7.38;;;3.63;;
77432;SDS011;66752;48.576;8.876;2023-08-30T11:01:54;8.15;;;3.70;;
77432;SDS011;66752;48.576;8.876;2023-08-30T11:04:26;6.53;;;2.88;;
77432;SDS011;66752;48.576;8.876;2023-08-30T11:06:55;5.45;;;3.28;;
77432;SDS011;66752;48.576;8.876;2023-08-30T11:09:23;5.10;;;2.95;;
77432;SDS011;66752;48.576;8.876;2023-08-30T11:11:49;5.30;;;2.83;;
77432;SDS011;66752;48.576;8.876;2023-08-30T11:14:16;5.22;;;3.22;;
77432;SDS011;66752;48.576;8.876;2023-08-30T11:16:42;5.10;;;2.80;;
77432;SDS011;66752;48.576;8.876;2023-08-30T11:19:09;4.50;;;2.38;;
77432;SDS011;66752;48.576;8.876;2023-08-30T11:21:44;4.38;;;2.22;;
77432;SDS011;66752;48.576;8.876;2023-08-30T11:24:11;3.90;;;2.08;;
77432;SDS011;66752;48.576;8.876;2023-08-30T11:29:05;4.57;;;2.45;;
77432;SDS011;66752;48.576;8.876;2023-08-30T11:31:32;7.95;;;2.50;;
77432;SDS011;66752;48.576;8.876;2023-08-30T11:33:58;4.03;;;2.15;;
77432;SDS011;66752;48.576;8.876;2023-08-30T11:36:28;4.82;;;2.28;;
77432;SDS011;66752;48.576;8.876;2023-08-30T11:38:54;3.60;;;1.70;;
77432;SDS011;66752;48.576;8.876;2023-08-30T11:41:20;3.75;;;1.70;;
77432;SDS011;66752;48.576;8.876;2023-08-30T11:43:47;3.70;;;1.85;;
77432;SDS011;66752;48.576;8.876;2023-08-30T11:48:42;4.05;;;1.80;;
77432;SDS011;66752;48.576;8.876;2023-08-30T11:51:08;4.13;;;2.15;;
77432;SDS011;66752;48.576;8.876;2023-08-30T11:53:34;4.25;;;2.30;;
77432;SDS011;66752;48.576;8.876;2023-08-30T11:56:02;4.43;;;2.28;;
77432;SDS011;66752;48.576;8.876;2023-08-30T12:00:54;5.03;;;2.58;;
77432;SDS011;66752;48.576;8.876;2023-08-30T12:03:20;4.47;;;2.40;;
77432;SDS011;66752;48.576;8.876;2023-08-30T12:05:47;4.45;;;2.22;;
77432;SDS011;66752;48.576;8.876;2023-08-30T12:10:45;4.22;;;2.10;;
77432;SDS011;66752;48.576;8.876;2023-08-30T12:15:39;4.65;;;2.30;;
77432;SDS011;66752;48.576;8.876;2023-08-30T12:18:09;6.22;;;2.30;;
77432;SDS011;66752;48.576;8.876;2023-08-30T12:20:35;4.30;;;2.25;;
77432;SDS011;66752;48.576;8.876;2023-08-30T12:23:01;5.20;;;2.55;;
77432;SDS011;66752;48.576;8.876;2023-08-30T12:25:28;4.25;;;2.00;;
77432;SDS011;66752;48.576;8.876;2023-08-30T12:27:55;4.53;;;2.55;;
77432;SDS011;66752;48.576;8.876;2023-08-30T12:30:22;6.95;;;2.72;;
77432;SDS011;66752;48.576;8.876;2023-08-30T12:32:48;5.65;;;2.15;;
77432;SDS011;66752;48.576;8.876;2023-08-30T12:35:14;5.38;;;2.00;;
77432;SDS011;66752;48.576;8.876;2023-08-30T12:40:06;4.50;;;2.33;;
77432;SDS011;66752;48.576;8.876;2023-08-30T12:42:33;3.92;;;2.03;;
77432;SDS011;66752;48.576;8.876;2023-08-30T12:44:59;4.60;;;2.33;;
77432;SDS011;66752;48.576;8.876;2023-08-30T12:47:25;4.75;;;2.33;;
77432;SDS011;66752;48.576;8.876;2023-08-30T12:49:51;5.32;;;2.53;;
77432;SDS011;66752;48.576;8.876;2023-08-30T12:52:17;4.68;;;2.45;;
77432;SDS011;66752;48.576;8.876;2023-08-30T12:54:43;4.90;;;2.17;;
77432;SDS011;66752;48.576;8.876;2023-08-30T12:57:09;4.25;;;2.10;;
77432;SDS011;66752;48.576;8.876;2023-08-30T12:59:36;6.53;;;2.35;;
77432;SDS011;66752;48.576;8.876;2023-08-30T13:02:02;3.92;;;2.10;;
77432;SDS011;66752;48.576;8.876;2023-08-30T13:04:28;4.68;;;2.30;;
77432;SDS011;66752;48.576;8.876;2023-08-30T13:06:53;4.60;;;2.40;;
77432;SDS011;66752;48.576;8.876;2023-08-30T13:09:20;4.15;;;2.30;;
77432;SDS011;66752;48.576;8.876;2023-08-30T13:11:46;6.32;;;2.40;;
77432;SDS011;66752;48.576;8.876;2023-08-30T13:14:11;4.07;;;2.15;;
77432;SDS011;66752;48.576;8.876;2023-08-30T13:16:37;4.72;;;2.40;;
77432;SDS011;66752;48.576;8.876;2023-08-30T13:19:03;4.88;;;2.22;;
77432;SDS011;66752;48.576;8.876;2023-08-30T13:21:29;4.50;;;2.00;;
77432;SDS011;66752;48.576;8.876;2023-08-30T13:23:55;5.80;;;2.40;;
77432;SDS011;66752;48.576;8.876;2023-08-30T13:26:21;4.80;;;2.30;;
77432;SDS011;66752;48.576;8.876;2023-08-30T13:28:47;5.03;;;2.20;;
77432;SDS011;66752;48.576;8.876;2023-08-30T13:31:13;4.30;;;2.15;;
77432;SDS011;66752;48.576;8.876;2023-08-30T13:33:39;5.05;;;2.63;;
77432;SDS011;66752;48.576;8.876;2023-08-30T13:36:05;4.63;;;2.20;;
77432;SDS011;66752;48.576;8.876;2023-08-30T13:38:31;6.05;;;2.78;;
77432;SDS011;66752;48.576;8.876;2023-08-30T13:40:58;4.38;;;2.10;;
77432;SDS011;66752;48.576;8.876;2023-08-30T13:43:24;5.32;;;2.53;;
77432;SDS011;66752;48.576;8.876;2023-08-30T13:45:56;4.47;;;2.08;;
77432;SDS011;66752;48.576;8.876;2023-08-30T13:48:22;3.90;;;2.22;;
77432;SDS011;66752;48.576;8.876;2023-08-30T13:50:49;4.57;;;2.05;;
77432;SDS011;66752;48.576;8.876;2023-08-30T13:53:15;5.10;;;2.35;;
77432;SDS011;66752;48.576;8.876;2023-08-30T13:55:45;4.45;;;1.90;;
77432;SDS011;66752;48.576;8.876;2023-08-30T13:58:10;4.10;;;2.10;;
77432;SDS011;66752;48.576;8.876;2023-08-30T14:00:36;5.30;;;2.05;;
77432;SDS011;66752;48.576;8.876;2023-08-30T14:03:02;4.50;;;2.03;;
77432;SDS011;66752;48.576;8.876;2023-08-30T14:05:28;4.68;;;2.30;;
77432;SDS011;66752;48.576;8.876;2023-08-30T14:07:54;4.55;;;2.08;;
77432;SDS011;66752;48.576;8.876;2023-08-30T14:10:20;4.20;;;1.98;;
77432;SDS011;66752;48.576;8.876;2023-08-30T14:12:46;5.32;;;2.35;;
77432;SDS011;66752;48.576;8.876;2023-08-30T14:15:12;3.97;;;2.05;;
77432;SDS011;66752;48.576;8.876;2023-08-30T14:17:38;5.43;;;1.92;;
77432;SDS011;66752;48.576;8.876;2023-08-30T14:20:04;4.55;;;2.10;;
77432;SDS011;66752;48.576;8.876;2023-08-30T14:22:31;4.07;;;1.92;;
77432;SDS011;66752;48.576;8.876;2023-08-30T14:27:23;3.83;;;1.75;;
77432;SDS011;66752;48.576;8.876;2023-08-30T14:29:49;6.00;;;2.38;;
77432;SDS011;66752;48.576;8.876;2023-08-30T14:32:15;5.13;;;2.50;;
77432;SDS011;66752;48.576;8.876;2023-08-30T14:34:41;4.20;;;1.98;;
77432;SDS011;66752;48.576;8.876;2023-08-30T14:37:07;4.53;;;2.28;;
77432;SDS011;66752;48.576;8.876;2023-08-30T14:39:33;3.90;;;2.00;;
77432;SDS011;66752;48.576;8.876;2023-08-30T14:41:59;5.07;;;2.30;;
77432;SDS011;66752;48.576;8.876;2023-08-30T14:44:25;4.25;;;2.40;;
77432;SDS011;66752;48.576;8.876;2023-08-30T14:46:51;5.93;;;2.63;;
77432;SDS011;66752;48.576;8.876;2023-08-30T14:49:17;5.22;;;2.10;;
77432;SDS011;66752;48.576;8.876;2023-08-30T14:51:43;4.32;;;2.20;;
77432;SDS011;66752;48.576;8.876;2023-08-30T14:54:09;5.82;;;2.20;;
77432;SDS011;66752;48.576;8.876;2023-08-30T14:56:35;4.72;;;2.33;;
77432;SDS011;66752;48.576;8.876;2023-08-30T14:59:01;4.50;;;2.30;;
77432;SDS011;66752;48.576;8.876;2023-08-30T15:01:27;4.57;;;2.10;;
77432;SDS011;66752;48.576;8.876;2023-08-30T15:03:53;4.00;;;2.10;;
77432;SDS011;66752;48.576;8.876;2023-08-30T15:06:19;5.97;;;3.00;;
77432;SDS011;66752;48.576;8.876;2023-08-30T15:08:45;4.60;;;2.13;;
77432;SDS011;66752;48.576;8.876;2023-08-30T15:11:11;4.82;;;2.58;;
77432;SDS011;66752;48.576;8.876;2023-08-30T15:13:37;5.20;;;2.15;;
77432;SDS011;66752;48.576;8.876;2023-08-30T15:16:03;4.28;;;2.13;;
77432;SDS011;66752;48.576;8.876;2023-08-30T15:18:29;5.63;;;2.40;;